sensor_id;sensor_type;location;lat;lon;timestamp;P1;durP1;ratioP1;P2;durP2;ratioP2
7971;SDS011;4031;49.758;6.120;2023-04-03T00:02:16;4.63;;;2.40;;
7971;SDS011;4031;49.758;6.120;2023-04-03T00:04:42;2.20;;;1.87;;
7971;SDS011;4031;49.758;6.120;2023-04-03T00:07:08;2.10;;;2.00;;
7971;SDS011;4031;49.758;6.120;2023-04-03T00:09:34;2.57;;;2.37;;
7971;SDS011;4031;49.758;6.120;2023-04-03T00:12:00;1.90;;;1.60;;
7971;SDS011;4031;49.758;6.120;2023-04-03T00:14:25;3.80;;;2.70;;
7971;SDS011;4031;49.758;6.120;2023-04-03T00:16:52;2.40;;;2.20;;
7971;SDS011;4031;49.758;6.120;2023-04-03T00:19:18;2.47;;;1.83;;
7971;SDS011;4031;49.758;6.120;2023-04-03T00:21:44;3.47;;;2.10;;
7971;SDS011;4031;49.758;6.120;2023-04-03T00:24:10;2.50;;;2.30;;
7971;SDS011;4031;49.758;6.120;2023-04-03T00:26:35;2.07;;;1.87;;
7971;SDS011;4031;49.758;6.120;2023-04-03T00:29:01;2.00;;;1.90;;
7971;SDS011;4031;49.758;6.120;2023-04-03T00:31:27;3.43;;;2.27;;
7971;SDS011;4031;49.758;6.120;2023-04-03T00:33:53;2.37;;;2.10;;
7971;SDS011;4031;49.758;6.120;2023-04-03T00:36:18;2.90;;;2.17;;
7971;SDS011;4031;49.758;6.120;2023-04-03T00:38:44;2.70;;;2.30;;
7971;SDS011;4031;49.758;6.120;2023-04-03T00:41:10;3.40;;;2.53;;
7971;SDS011;4031;49.758;6.120;2023-04-03T00:43:36;1.50;;;1.40;;
7971;SDS011;4031;49.758;6.120;2023-04-03T00:46:02;2.80;;;2.60;;
7971;SDS011;4031;49.758;6.120;2023-04-03T00:48:31;2.53;;;2.30;;
7971;SDS011;4031;49.758;6.120;2023-04-03T00:51:03;2.47;;;2.27;;
7971;SDS011;4031;49.758;6.120;2023-04-03T00:53:33;2.40;;;2.20;;
7971;SDS011;4031;49.758;6.120;2023-04-03T00:56:08;2.83;;;2.17;;
7971;SDS011;4031;49.758;6.120;2023-04-03T00:58:40;2.17;;;1.97;;
7971;SDS011;4031;49.758;6.120;2023-04-03T01:01:24;3.20;;;2.63;;
7971;SDS011;4031;49.758;6.120;2023-04-03T01:03:52;3.67;;;2.33;;
7971;SDS011;4031;49.758;6.120;2023-04-03T01:06:20;2.77;;;2.23;;
7971;SDS011;4031;49.758;6.120;2023-04-03T01:08:52;1.83;;;1.73;;
7971;SDS011;4031;49.758;6.120;2023-04-03T01:11:18;6.47;;;2.20;;
7971;SDS011;4031;49.758;6.120;2023-04-03T01:13:45;2.40;;;2.03;;
7971;SDS011;4031;49.758;6.120;2023-04-03T01:16:11;2.67;;;2.47;;
7971;SDS011;4031;49.758;6.120;2023-04-03T01:18:37;2.47;;;2.27;;
7971;SDS011;4031;49.758;6.120;2023-04-03T01:26:49;3.17;;;2.30;;
7971;SDS011;4031;49.758;6.120;2023-04-03T01:29:15;5.80;;;2.20;;
7971;SDS011;4031;49.758;6.120;2023-04-03T01:31:46;2.97;;;1.77;;
7971;SDS011;4031;49.758;6.120;2023-04-03T01:34:23;3.47;;;2.20;;
7971;SDS011;4031;49.758;6.120;2023-04-03T01:36:50;2.50;;;2.10;;
7971;SDS011;4031;49.758;6.120;2023-04-03T01:39:17;2.60;;;2.40;;
7971;SDS011;4031;49.758;6.120;2023-04-03T01:41:43;3.10;;;2.30;;
7971;SDS011;4031;49.758;6.120;2023-04-03T01:44:09;2.77;;;2.57;;
7971;SDS011;4031;49.758;6.120;2023-04-03T01:46:35;3.30;;;2.10;;
7971;SDS011;4031;49.758;6.120;2023-04-03T01:49:02;3.10;;;2.07;;
7971;SDS011;4031;49.758;6.120;2023-04-03T01:51:29;3.47;;;2.17;;
7971;SDS011;4031;49.758;6.120;2023-04-03T01:53:55;3.22;;;2.92;;
7971;SDS011;4031;49.758;6.120;2023-04-03T01:56:21;2.00;;;1.90;;
7971;SDS011;4031;49.758;6.120;2023-04-03T01:58:47;1.90;;;1.80;;
7971;SDS011;4031;49.758;6.120;2023-04-03T02:01:13;2.13;;;1.90;;
7971;SDS011;4031;49.758;6.120;2023-04-03T02:03:38;5.33;;;2.47;;
7971;SDS011;4031;49.758;6.120;2023-04-03T02:06:04;2.33;;;2.13;;
7971;SDS011;4031;49.758;6.120;2023-04-03T02:08:30;2.80;;;2.05;;
7971;SDS011;4031;49.758;6.120;2023-04-03T02:10:56;2.77;;;2.50;;
7971;SDS011;4031;49.758;6.120;2023-04-03T02:13:22;2.17;;;2.00;;
7971;SDS011;4031;49.758;6.120;2023-04-03T02:15:47;2.07;;;1.87;;
7971;SDS011;4031;49.758;6.120;2023-04-03T02:18:13;2.73;;;2.50;;
7971;SDS011;4031;49.758;6.120;2023-04-03T02:20:39;3.22;;;2.22;;
7971;SDS011;4031;49.758;6.120;2023-04-03T02:23:05;3.53;;;2.70;;
7971;SDS011;4031;49.758;6.120;2023-04-03T02:25:31;2.87;;;2.67;;
7971;SDS011;4031;49.758;6.120;2023-04-03T02:27:57;3.25;;;2.45;;
7971;SDS011;4031;49.758;6.120;2023-04-03T02:30:23;2.30;;;2.10;;
7971;SDS011;4031;49.758;6.120;2023-04-03T02:32:49;3.50;;;2.60;;
7971;SDS011;4031;49.758;6.120;2023-04-03T02:35:15;3.47;;;3.27;;
7971;SDS011;4031;49.758;6.120;2023-04-03T02:37:41;2.37;;;2.17;;
7971;SDS011;4031;49.758;6.120;2023-04-03T02:40:07;2.30;;;2.20;;
7971;SDS011;4031;49.758;6.120;2023-04-03T02:42:33;3.97;;;2.72;;
7971;SDS011;4031;49.758;6.120;2023-04-03T02:44:59;5.53;;;2.87;;
7971;SDS011;4031;49.758;6.120;2023-04-03T02:47:27;3.05;;;2.80;;
7971;SDS011;4031;49.758;6.120;2023-04-03T02:49:53;3.23;;;2.83;;
7971;SDS011;4031;49.758;6.120;2023-04-03T02:52:19;2.10;;;1.90;;
7971;SDS011;4031;49.758;6.120;2023-04-03T02:54:45;2.85;;;1.92;;
7971;SDS011;4031;49.758;6.120;2023-04-03T02:57:11;3.63;;;2.23;;
7971;SDS011;4031;49.758;6.120;2023-04-03T02:59:37;3.25;;;2.95;;
7971;SDS011;4031;49.758;6.120;2023-04-03T03:02:09;3.30;;;3.05;;
7971;SDS011;4031;49.758;6.120;2023-04-03T03:04:35;4.60;;;2.65;;
7971;SDS011;4031;49.758;6.120;2023-04-03T03:07:01;1.93;;;1.83;;
7971;SDS011;4031;49.758;6.120;2023-04-03T03:09:27;2.22;;;2.13;;
7971;SDS011;4031;49.758;6.120;2023-04-03T03:11:54;2.13;;;2.03;;
7971;SDS011;4031;49.758;6.120;2023-04-03T03:14:21;2.30;;;2.03;;
7971;SDS011;4031;49.758;6.120;2023-04-03T03:16:47;3.10;;;2.17;;
7971;SDS011;4031;49.758;6.120;2023-04-03T03:19:12;3.00;;;2.70;;
7971;SDS011;4031;49.758;6.120;2023-04-03T03:21:38;4.10;;;2.70;;
7971;SDS011;4031;49.758;6.120;2023-04-03T03:24:04;5.00;;;3.30;;
7971;SDS011;4031;49.758;6.120;2023-04-03T03:26:30;4.63;;;2.40;;
7971;SDS011;4031;49.758;6.120;2023-04-03T03:28:56;2.47;;;2.27;;
7971;SDS011;4031;49.758;6.120;2023-04-03T03:31:21;4.03;;;2.33;;
7971;SDS011;4031;49.758;6.120;2023-04-03T03:33:47;6.23;;;2.60;;
7971;SDS011;4031;49.758;6.120;2023-04-03T03:36:13;4.30;;;2.00;;
7971;SDS011;4031;49.758;6.120;2023-04-03T03:38:39;4.90;;;2.93;;
7971;SDS011;4031;49.758;6.120;2023-04-03T03:41:05;3.30;;;2.20;;
7971;SDS011;4031;49.758;6.120;2023-04-03T03:43:31;3.05;;;2.15;;
7971;SDS011;4031;49.758;6.120;2023-04-03T03:45:56;2.90;;;2.23;;
7971;SDS011;4031;49.758;6.120;2023-04-03T03:48:22;2.90;;;2.70;;
7971;SDS011;4031;49.758;6.120;2023-04-03T03:50:48;2.47;;;2.27;;
7971;SDS011;4031;49.758;6.120;2023-04-03T03:53:14;2.28;;;2.08;;
7971;SDS011;4031;49.758;6.120;2023-04-03T03:55:41;3.25;;;2.70;;
7971;SDS011;4031;49.758;6.120;2023-04-03T03:58:06;3.50;;;2.10;;
7971;SDS011;4031;49.758;6.120;2023-04-03T04:00:32;2.40;;;2.17;;
7971;SDS011;4031;49.758;6.120;2023-04-03T04:02:58;2.50;;;2.30;;
7971;SDS011;4031;49.758;6.120;2023-04-03T04:05:24;2.50;;;2.30;;
7971;SDS011;4031;49.758;6.120;2023-04-03T04:07:49;2.17;;;2.07;;
7971;SDS011;4031;49.758;6.120;2023-04-03T04:10:15;1.98;;;1.73;;
7971;SDS011;4031;49.758;6.120;2023-04-03T04:12:41;3.57;;;2.07;;
7971;SDS011;4031;49.758;6.120;2023-04-03T04:15:07;4.20;;;2.90;;
7971;SDS011;4031;49.758;6.120;2023-04-03T04:17:34;2.63;;;2.40;;
7971;SDS011;4031;49.758;6.120;2023-04-03T04:20:00;5.28;;;2.78;;
7971;SDS011;4031;49.758;6.120;2023-04-03T04:22:27;1.80;;;1.70;;
7971;SDS011;4031;49.758;6.120;2023-04-03T04:24:54;2.70;;;2.50;;
7971;SDS011;4031;49.758;6.120;2023-04-03T04:27:19;2.73;;;2.50;;
7971;SDS011;4031;49.758;6.120;2023-04-03T04:29:45;3.67;;;2.30;;
7971;SDS011;4031;49.758;6.120;2023-04-03T04:32:11;4.27;;;2.77;;
7971;SDS011;4031;49.758;6.120;2023-04-03T04:34:36;2.70;;;2.50;;
7971;SDS011;4031;49.758;6.120;2023-04-03T04:37:02;4.60;;;2.60;;
7971;SDS011;4031;49.758;6.120;2023-04-03T04:39:28;4.13;;;3.27;;
7971;SDS011;4031;49.758;6.120;2023-04-03T04:41:54;2.23;;;2.03;;
7971;SDS011;4031;49.758;6.120;2023-04-03T04:44:20;4.38;;;2.20;;
7971;SDS011;4031;49.758;6.120;2023-04-03T04:46:45;2.10;;;1.87;;
7971;SDS011;4031;49.758;6.120;2023-04-03T04:49:11;5.03;;;2.87;;
7971;SDS011;4031;49.758;6.120;2023-04-03T04:51:37;6.40;;;2.90;;
7971;SDS011;4031;49.758;6.120;2023-04-03T04:54:03;3.80;;;2.30;;
7971;SDS011;4031;49.758;6.120;2023-04-03T04:56:28;3.53;;;2.47;;
7971;SDS011;4031;49.758;6.120;2023-04-03T04:58:54;2.40;;;2.30;;
7971;SDS011;4031;49.758;6.120;2023-04-03T05:01:20;3.23;;;2.27;;
7971;SDS011;4031;49.758;6.120;2023-04-03T05:03:45;2.80;;;2.60;;
7971;SDS011;4031;49.758;6.120;2023-04-03T05:06:12;4.05;;;2.10;;
7971;SDS011;4031;49.758;6.120;2023-04-03T05:08:38;5.37;;;2.57;;
7971;SDS011;4031;49.758;6.120;2023-04-03T05:11:04;4.33;;;2.50;;
7971;SDS011;4031;49.758;6.120;2023-04-03T05:13:30;2.33;;;2.10;;
7971;SDS011;4031;49.758;6.120;2023-04-03T05:15:56;2.10;;;1.83;;
7971;SDS011;4031;49.758;6.120;2023-04-03T05:18:21;3.63;;;2.50;;
7971;SDS011;4031;49.758;6.120;2023-04-03T05:20:48;2.80;;;2.27;;
7971;SDS011;4031;49.758;6.120;2023-04-03T05:23:15;2.95;;;2.65;;
7971;SDS011;4031;49.758;6.120;2023-04-03T05:25:41;2.72;;;2.50;;
7971;SDS011;4031;49.758;6.120;2023-04-03T05:28:09;3.63;;;2.00;;
7971;SDS011;4031;49.758;6.120;2023-04-03T05:30:35;4.53;;;3.07;;
7971;SDS011;4031;49.758;6.120;2023-04-03T05:33:00;2.07;;;1.77;;
7971;SDS011;4031;49.758;6.120;2023-04-03T05:35:26;4.83;;;2.37;;
7971;SDS011;4031;49.758;6.120;2023-04-03T05:37:52;2.77;;;2.57;;
7971;SDS011;4031;49.758;6.120;2023-04-03T05:40:18;5.60;;;3.47;;
7971;SDS011;4031;49.758;6.120;2023-04-03T05:42:44;4.03;;;2.30;;
7971;SDS011;4031;49.758;6.120;2023-04-03T05:45:09;3.43;;;2.77;;
7971;SDS011;4031;49.758;6.120;2023-04-03T05:47:36;2.75;;;2.55;;
7971;SDS011;4031;49.758;6.120;2023-04-03T05:50:02;2.67;;;2.47;;
7971;SDS011;4031;49.758;6.120;2023-04-03T05:52:29;3.22;;;2.63;;
7971;SDS011;4031;49.758;6.120;2023-04-03T05:54:58;3.42;;;3.10;;
7971;SDS011;4031;49.758;6.120;2023-04-03T05:57:24;2.70;;;2.50;;
7971;SDS011;4031;49.758;6.120;2023-04-03T05:59:50;2.97;;;2.67;;
7971;SDS011;4031;49.758;6.120;2023-04-03T06:02:17;3.50;;;2.70;;
7971;SDS011;4031;49.758;6.120;2023-04-03T06:04:46;3.65;;;2.90;;
7971;SDS011;4031;49.758;6.120;2023-04-03T06:07:22;3.50;;;2.92;;
7971;SDS011;4031;49.758;6.120;2023-04-03T06:09:52;3.05;;;2.60;;
7971;SDS011;4031;49.758;6.120;2023-04-03T06:12:18;5.75;;;3.88;;
7971;SDS011;4031;49.758;6.120;2023-04-03T06:14:44;3.25;;;2.58;;
7971;SDS011;4031;49.758;6.120;2023-04-03T06:17:10;2.80;;;2.60;;
7971;SDS011;4031;49.758;6.120;2023-04-03T06:19:37;3.75;;;3.25;;
7971;SDS011;4031;49.758;6.120;2023-04-03T06:22:03;3.00;;;2.80;;
7971;SDS011;4031;49.758;6.120;2023-04-03T06:24:29;4.30;;;3.20;;
7971;SDS011;4031;49.758;6.120;2023-04-03T06:26:55;3.20;;;2.90;;
7971;SDS011;4031;49.758;6.120;2023-04-03T06:29:22;6.85;;;3.47;;
7971;SDS011;4031;49.758;6.120;2023-04-03T06:31:48;6.70;;;2.90;;
7971;SDS011;4031;49.758;6.120;2023-04-03T06:34:15;6.28;;;2.80;;
7971;SDS011;4031;49.758;6.120;2023-04-03T06:36:41;3.45;;;2.95;;
7971;SDS011;4031;49.758;6.120;2023-04-03T06:39:09;2.45;;;2.08;;
7971;SDS011;4031;49.758;6.120;2023-04-03T06:41:40;1.80;;;1.70;;
7971;SDS011;4031;49.758;6.120;2023-04-03T06:44:05;2.50;;;2.30;;
7971;SDS011;4031;49.758;6.120;2023-04-03T06:46:32;6.77;;;4.30;;
7971;SDS011;4031;49.758;6.120;2023-04-03T06:48:58;8.30;;;2.97;;
7971;SDS011;4031;49.758;6.120;2023-04-03T06:51:25;2.40;;;2.20;;
7971;SDS011;4031;49.758;6.120;2023-04-03T06:53:54;8.73;;;2.57;;
7971;SDS011;4031;49.758;6.120;2023-04-03T06:56:22;1.77;;;1.67;;
7971;SDS011;4031;49.758;6.120;2023-04-03T06:58:50;3.93;;;1.97;;
7971;SDS011;4031;49.758;6.120;2023-04-03T07:01:16;2.67;;;1.60;;
7971;SDS011;4031;49.758;6.120;2023-04-03T07:03:44;2.17;;;1.40;;
7971;SDS011;4031;49.758;6.120;2023-04-03T07:06:12;2.07;;;1.50;;
7971;SDS011;4031;49.758;6.120;2023-04-03T07:08:38;1.33;;;1.23;;
7971;SDS011;4031;49.758;6.120;2023-04-03T07:11:05;1.57;;;1.43;;
7971;SDS011;4031;49.758;6.120;2023-04-03T07:13:31;2.63;;;1.60;;
7971;SDS011;4031;49.758;6.120;2023-04-03T07:15:57;2.27;;;1.60;;
7971;SDS011;4031;49.758;6.120;2023-04-03T07:18:24;1.47;;;0.73;;
7971;SDS011;4031;49.758;6.120;2023-04-03T07:20:51;1.33;;;1.20;;
7971;SDS011;4031;49.758;6.120;2023-04-03T07:23:17;1.30;;;1.20;;
7971;SDS011;4031;49.758;6.120;2023-04-03T07:25:44;1.97;;;0.80;;
7971;SDS011;4031;49.758;6.120;2023-04-03T07:28:15;1.50;;;1.40;;
7971;SDS011;4031;49.758;6.120;2023-04-03T07:30:43;3.13;;;1.70;;
7971;SDS011;4031;49.758;6.120;2023-04-03T07:33:10;2.13;;;1.40;;
7971;SDS011;4031;49.758;6.120;2023-04-03T07:35:38;3.13;;;1.20;;
7971;SDS011;4031;49.758;6.120;2023-04-03T07:38:04;4.20;;;0.90;;
7971;SDS011;4031;49.758;6.120;2023-04-03T07:40:31;1.67;;;1.30;;
7971;SDS011;4031;49.758;6.120;2023-04-03T07:42:57;2.03;;;1.50;;
7971;SDS011;4031;49.758;6.120;2023-04-03T07:45:23;1.60;;;1.27;;
7971;SDS011;4031;49.758;6.120;2023-04-03T07:47:49;2.00;;;0.90;;
7971;SDS011;4031;49.758;6.120;2023-04-03T07:50:15;2.53;;;1.77;;
7971;SDS011;4031;49.758;6.120;2023-04-03T07:52:41;6.60;;;1.60;;
7971;SDS011;4031;49.758;6.120;2023-04-03T07:55:07;1.70;;;1.60;;
7971;SDS011;4031;49.758;6.120;2023-04-03T07:57:33;2.57;;;1.20;;
7971;SDS011;4031;49.758;6.120;2023-04-03T08:00:00;2.60;;;1.30;;
7971;SDS011;4031;49.758;6.120;2023-04-03T08:02:26;3.70;;;1.23;;
7971;SDS011;4031;49.758;6.120;2023-04-03T08:04:52;1.73;;;1.20;;
7971;SDS011;4031;49.758;6.120;2023-04-03T08:07:17;3.83;;;1.53;;
7971;SDS011;4031;49.758;6.120;2023-04-03T08:09:43;3.73;;;1.40;;
7971;SDS011;4031;49.758;6.120;2023-04-03T08:12:09;2.50;;;1.20;;
7971;SDS011;4031;49.758;6.120;2023-04-03T08:14:36;3.13;;;1.10;;
7971;SDS011;4031;49.758;6.120;2023-04-03T08:17:02;2.00;;;1.30;;
7971;SDS011;4031;49.758;6.120;2023-04-03T08:19:30;2.80;;;1.33;;
7971;SDS011;4031;49.758;6.120;2023-04-03T08:21:56;2.10;;;1.50;;
7971;SDS011;4031;49.758;6.120;2023-04-03T08:24:23;1.60;;;1.40;;
7971;SDS011;4031;49.758;6.120;2023-04-03T08:26:50;1.40;;;1.30;;
7971;SDS011;4031;49.758;6.120;2023-04-03T08:29:16;1.20;;;1.10;;
7971;SDS011;4031;49.758;6.120;2023-04-03T08:31:41;1.27;;;1.10;;
7971;SDS011;4031;49.758;6.120;2023-04-03T08:34:07;4.40;;;1.30;;
7971;SDS011;4031;49.758;6.120;2023-04-03T08:36:33;1.70;;;1.30;;
7971;SDS011;4031;49.758;6.120;2023-04-03T08:38:59;1.30;;;0.90;;
7971;SDS011;4031;49.758;6.120;2023-04-03T08:41:33;2.73;;;1.80;;
7971;SDS011;4031;49.758;6.120;2023-04-03T08:50:01;2.77;;;1.90;;
7971;SDS011;4031;49.758;6.120;2023-04-03T08:55:07;1.20;;;1.10;;
7971;SDS011;4031;49.758;6.120;2023-04-03T08:57:43;1.80;;;1.50;;
7971;SDS011;4031;49.758;6.120;2023-04-03T09:02:47;2.40;;;1.90;;
7971;SDS011;4031;49.758;6.120;2023-04-03T09:05:16;1.90;;;1.30;;
7971;SDS011;4031;49.758;6.120;2023-04-03T09:10:47;2.10;;;1.40;;
7971;SDS011;4031;49.758;6.120;2023-04-03T09:13:26;5.27;;;1.63;;
7971;SDS011;4031;49.758;6.120;2023-04-03T09:15:57;4.20;;;1.80;;
7971;SDS011;4031;49.758;6.120;2023-04-03T09:18:30;1.90;;;1.33;;
7971;SDS011;4031;49.758;6.120;2023-04-03T09:23:58;2.07;;;1.97;;
7971;SDS011;4031;49.758;6.120;2023-04-03T09:26:27;1.60;;;1.50;;
7971;SDS011;4031;49.758;6.120;2023-04-03T09:29:01;1.60;;;1.50;;
7971;SDS011;4031;49.758;6.120;2023-04-03T09:31:42;2.10;;;1.50;;
7971;SDS011;4031;49.758;6.120;2023-04-03T09:34:18;2.53;;;1.47;;
7971;SDS011;4031;49.758;6.120;2023-04-03T09:36:51;2.87;;;1.90;;
7971;SDS011;4031;49.758;6.120;2023-04-03T09:39:27;2.90;;;1.80;;
7971;SDS011;4031;49.758;6.120;2023-04-03T09:41:58;1.47;;;1.37;;
7971;SDS011;4031;49.758;6.120;2023-04-03T09:44:37;1.40;;;1.30;;
7971;SDS011;4031;49.758;6.120;2023-04-03T09:47:24;1.47;;;1.30;;
7971;SDS011;4031;49.758;6.120;2023-04-03T09:50:09;2.30;;;1.57;;
7971;SDS011;4031;49.758;6.120;2023-04-03T09:52:49;2.00;;;1.40;;
7971;SDS011;4031;49.758;6.120;2023-04-03T09:55:20;2.17;;;1.50;;
7971;SDS011;4031;49.758;6.120;2023-04-03T09:58:01;1.67;;;1.50;;
7971;SDS011;4031;49.758;6.120;2023-04-03T10:00:34;4.70;;;1.87;;
7971;SDS011;4031;49.758;6.120;2023-04-03T10:03:05;2.97;;;1.67;;
7971;SDS011;4031;49.758;6.120;2023-04-03T10:05:49;2.67;;;1.50;;
7971;SDS011;4031;49.758;6.120;2023-04-03T10:08:23;1.73;;;1.60;;
7971;SDS011;4031;49.758;6.120;2023-04-03T10:11:05;1.67;;;1.13;;
7971;SDS011;4031;49.758;6.120;2023-04-03T10:14:00;1.73;;;1.43;;
7971;SDS011;4031;49.758;6.120;2023-04-03T10:16:40;3.13;;;1.67;;
7971;SDS011;4031;49.758;6.120;2023-04-03T10:25:04;1.80;;;1.60;;
7971;SDS011;4031;49.758;6.120;2023-04-03T10:41:50;1.67;;;1.43;;
7971;SDS011;4031;49.758;6.120;2023-04-03T10:53:40;5.03;;;1.87;;
7971;SDS011;4031;49.758;6.120;2023-04-03T10:56:30;4.47;;;2.00;;
7971;SDS011;4031;49.758;6.120;2023-04-03T11:01:44;1.80;;;1.40;;
7971;SDS011;4031;49.758;6.120;2023-04-03T11:04:15;2.00;;;1.30;;
7971;SDS011;4031;49.758;6.120;2023-04-03T11:06:46;2.80;;;1.80;;
7971;SDS011;4031;49.758;6.120;2023-04-03T11:09:26;1.30;;;1.20;;
7971;SDS011;4031;49.758;6.120;2023-04-03T11:15:06;2.03;;;1.57;;
7971;SDS011;4031;49.758;6.120;2023-04-03T11:17:51;3.50;;;1.50;;
7971;SDS011;4031;49.758;6.120;2023-04-03T11:20:30;4.00;;;1.90;;
7971;SDS011;4031;49.758;6.120;2023-04-03T11:25:51;1.27;;;1.10;;
7971;SDS011;4031;49.758;6.120;2023-04-03T11:28:21;3.00;;;1.70;;
7971;SDS011;4031;49.758;6.120;2023-04-03T11:36:47;2.20;;;1.20;;
7971;SDS011;4031;49.758;6.120;2023-04-03T11:41:51;2.27;;;1.30;;
7971;SDS011;4031;49.758;6.120;2023-04-03T11:44:36;2.30;;;1.13;;
7971;SDS011;4031;49.758;6.120;2023-04-03T11:47:07;1.50;;;1.40;;
7971;SDS011;4031;49.758;6.120;2023-04-03T11:52:54;1.97;;;1.57;;
7971;SDS011;4031;49.758;6.120;2023-04-03T12:08:45;2.07;;;1.17;;
7971;SDS011;4031;49.758;6.120;2023-04-03T12:35:24;6.73;;;1.70;;
7971;SDS011;4031;49.758;6.120;2023-04-03T12:38:20;4.33;;;1.40;;
7971;SDS011;4031;49.758;6.120;2023-04-03T12:43:59;2.00;;;1.00;;
7971;SDS011;4031;49.758;6.120;2023-04-03T12:46:43;1.57;;;1.23;;
7971;SDS011;4031;49.758;6.120;2023-04-03T12:49:33;1.77;;;1.40;;
7971;SDS011;4031;49.758;6.120;2023-04-03T12:52:25;1.20;;;1.10;;
7971;SDS011;4031;49.758;6.120;2023-04-03T12:54:59;2.43;;;1.40;;
7971;SDS011;4031;49.758;6.120;2023-04-03T12:57:29;4.63;;;1.17;;
7971;SDS011;4031;49.758;6.120;2023-04-03T12:59:57;2.40;;;1.20;;
7971;SDS011;4031;49.758;6.120;2023-04-03T13:02:30;3.40;;;1.30;;
7971;SDS011;4031;49.758;6.120;2023-04-03T13:05:08;3.17;;;1.53;;
7971;SDS011;4031;49.758;6.120;2023-04-03T13:07:41;1.17;;;0.97;;
7971;SDS011;4031;49.758;6.120;2023-04-03T13:12:34;1.30;;;1.17;;
7971;SDS011;4031;49.758;6.120;2023-04-03T13:15:16;1.90;;;0.90;;
7971;SDS011;4031;49.758;6.120;2023-04-03T13:17:55;3.00;;;1.60;;
7971;SDS011;4031;49.758;6.120;2023-04-03T13:20:28;1.83;;;0.77;;
7971;SDS011;4031;49.758;6.120;2023-04-03T13:22:59;2.73;;;1.13;;
7971;SDS011;4031;49.758;6.120;2023-04-03T13:25:30;3.10;;;1.37;;
7971;SDS011;4031;49.758;6.120;2023-04-03T13:28:00;2.27;;;0.93;;
7971;SDS011;4031;49.758;6.120;2023-04-03T13:30:33;1.00;;;0.90;;
7971;SDS011;4031;49.758;6.120;2023-04-03T13:33:03;2.40;;;1.37;;
7971;SDS011;4031;49.758;6.120;2023-04-03T13:35:45;1.90;;;1.00;;
7971;SDS011;4031;49.758;6.120;2023-04-03T13:40:48;1.43;;;1.10;;
7971;SDS011;4031;49.758;6.120;2023-04-03T13:43:21;2.90;;;1.00;;
7971;SDS011;4031;49.758;6.120;2023-04-03T13:45:57;1.57;;;0.90;;
7971;SDS011;4031;49.758;6.120;2023-04-03T13:48:46;1.53;;;0.90;;
7971;SDS011;4031;49.758;6.120;2023-04-03T13:59:06;1.97;;;1.27;;
7971;SDS011;4031;49.758;6.120;2023-04-03T14:01:52;1.93;;;1.20;;
7971;SDS011;4031;49.758;6.120;2023-04-03T14:04:29;1.60;;;1.00;;
7971;SDS011;4031;49.758;6.120;2023-04-03T14:06:58;1.07;;;0.97;;
7971;SDS011;4031;49.758;6.120;2023-04-03T14:09:25;1.97;;;1.20;;
7971;SDS011;4031;49.758;6.120;2023-04-03T14:11:57;2.30;;;1.33;;
7971;SDS011;4031;49.758;6.120;2023-04-03T14:14:46;2.70;;;1.60;;
7971;SDS011;4031;49.758;6.120;2023-04-03T14:17:22;1.53;;;1.43;;
7971;SDS011;4031;49.758;6.120;2023-04-03T14:19:52;3.00;;;1.00;;
7971;SDS011;4031;49.758;6.120;2023-04-03T14:22:20;1.10;;;1.00;;
7971;SDS011;4031;49.758;6.120;2023-04-03T14:24:57;2.30;;;0.90;;
7971;SDS011;4031;49.758;6.120;2023-04-03T14:27:26;1.90;;;1.70;;
7971;SDS011;4031;49.758;6.120;2023-04-03T14:32:46;1.80;;;1.07;;
7971;SDS011;4031;49.758;6.120;2023-04-03T14:35:12;2.00;;;1.10;;
7971;SDS011;4031;49.758;6.120;2023-04-03T14:37:39;1.63;;;1.10;;
7971;SDS011;4031;49.758;6.120;2023-04-03T14:40:06;1.67;;;0.80;;
7971;SDS011;4031;49.758;6.120;2023-04-03T14:42:34;2.10;;;1.00;;
7971;SDS011;4031;49.758;6.120;2023-04-03T14:45:03;2.30;;;0.93;;
7971;SDS011;4031;49.758;6.120;2023-04-03T14:47:33;1.80;;;1.00;;
7971;SDS011;4031;49.758;6.120;2023-04-03T14:50:17;2.00;;;1.07;;
7971;SDS011;4031;49.758;6.120;2023-04-03T14:52:50;3.90;;;1.33;;
7971;SDS011;4031;49.758;6.120;2023-04-03T14:55:20;0.97;;;0.87;;
7971;SDS011;4031;49.758;6.120;2023-04-03T14:57:47;2.50;;;1.17;;
7971;SDS011;4031;49.758;6.120;2023-04-03T15:00:17;1.03;;;0.93;;
7971;SDS011;4031;49.758;6.120;2023-04-03T15:02:45;1.93;;;0.90;;
7971;SDS011;4031;49.758;6.120;2023-04-03T15:05:12;2.60;;;1.03;;
7971;SDS011;4031;49.758;6.120;2023-04-03T15:07:40;3.30;;;1.20;;
7971;SDS011;4031;49.758;6.120;2023-04-03T15:10:20;1.50;;;1.10;;
7971;SDS011;4031;49.758;6.120;2023-04-03T15:12:48;2.10;;;1.30;;
7971;SDS011;4031;49.758;6.120;2023-04-03T15:15:15;1.33;;;0.80;;
7971;SDS011;4031;49.758;6.120;2023-04-03T15:17:44;1.90;;;1.27;;
7971;SDS011;4031;49.758;6.120;2023-04-03T15:22:44;1.30;;;0.73;;
7971;SDS011;4031;49.758;6.120;2023-04-03T15:25:10;1.40;;;0.97;;
7971;SDS011;4031;49.758;6.120;2023-04-03T15:27:36;2.00;;;0.90;;
7971;SDS011;4031;49.758;6.120;2023-04-03T15:30:06;3.37;;;1.50;;
7971;SDS011;4031;49.758;6.120;2023-04-03T15:32:38;3.77;;;1.40;;
7971;SDS011;4031;49.758;6.120;2023-04-03T15:35:04;2.33;;;0.83;;
7971;SDS011;4031;49.758;6.120;2023-04-03T15:37:31;4.67;;;1.90;;
7971;SDS011;4031;49.758;6.120;2023-04-03T15:39:57;1.43;;;1.10;;
7971;SDS011;4031;49.758;6.120;2023-04-03T15:42:23;2.50;;;0.90;;
7971;SDS011;4031;49.758;6.120;2023-04-03T15:44:49;2.10;;;0.93;;
7971;SDS011;4031;49.758;6.120;2023-04-03T15:47:14;1.60;;;1.10;;
7971;SDS011;4031;49.758;6.120;2023-04-03T15:49:40;2.00;;;1.20;;
7971;SDS011;4031;49.758;6.120;2023-04-03T15:52:06;2.70;;;1.13;;
7971;SDS011;4031;49.758;6.120;2023-04-03T15:54:32;1.37;;;1.17;;
7971;SDS011;4031;49.758;6.120;2023-04-03T15:56:57;2.47;;;1.37;;
7971;SDS011;4031;49.758;6.120;2023-04-03T15:59:23;2.10;;;1.00;;
7971;SDS011;4031;49.758;6.120;2023-04-03T16:01:49;1.83;;;1.37;;
7971;SDS011;4031;49.758;6.120;2023-04-03T16:04:16;2.63;;;1.30;;
7971;SDS011;4031;49.758;6.120;2023-04-03T16:06:42;3.00;;;1.10;;
7971;SDS011;4031;49.758;6.120;2023-04-03T16:09:08;2.87;;;1.17;;
7971;SDS011;4031;49.758;6.120;2023-04-03T16:11:35;3.63;;;1.30;;
7971;SDS011;4031;49.758;6.120;2023-04-03T16:14:04;2.07;;;1.30;;
7971;SDS011;4031;49.758;6.120;2023-04-03T16:16:32;1.43;;;1.13;;
7971;SDS011;4031;49.758;6.120;2023-04-03T16:18:58;1.57;;;1.30;;
7971;SDS011;4031;49.758;6.120;2023-04-03T16:21:24;1.83;;;1.27;;
7971;SDS011;4031;49.758;6.120;2023-04-03T16:23:51;0.80;;;0.50;;
7971;SDS011;4031;49.758;6.120;2023-04-03T16:26:17;1.20;;;0.87;;
7971;SDS011;4031;49.758;6.120;2023-04-03T16:28:43;1.00;;;0.93;;
7971;SDS011;4031;49.758;6.120;2023-04-03T16:31:09;3.60;;;1.20;;
7971;SDS011;4031;49.758;6.120;2023-04-03T16:33:35;4.00;;;1.67;;
7971;SDS011;4031;49.758;6.120;2023-04-03T16:36:02;1.20;;;1.10;;
7971;SDS011;4031;49.758;6.120;2023-04-03T16:38:29;1.63;;;1.00;;
7971;SDS011;4031;49.758;6.120;2023-04-03T16:40:55;1.70;;;1.00;;
7971;SDS011;4031;49.758;6.120;2023-04-03T16:43:24;2.00;;;1.20;;
7971;SDS011;4031;49.758;6.120;2023-04-03T16:45:51;1.83;;;1.17;;
7971;SDS011;4031;49.758;6.120;2023-04-03T16:48:17;0.90;;;0.90;;
7971;SDS011;4031;49.758;6.120;2023-04-03T16:50:45;1.60;;;1.10;;
7971;SDS011;4031;49.758;6.120;2023-04-03T16:53:13;2.17;;;1.20;;
7971;SDS011;4031;49.758;6.120;2023-04-03T16:55:39;2.10;;;1.13;;
7971;SDS011;4031;49.758;6.120;2023-04-03T16:58:05;1.40;;;1.30;;
7971;SDS011;4031;49.758;6.120;2023-04-03T17:00:31;2.50;;;1.00;;
7971;SDS011;4031;49.758;6.120;2023-04-03T17:02:57;1.30;;;1.20;;
7971;SDS011;4031;49.758;6.120;2023-04-03T17:05:23;1.57;;;1.47;;
7971;SDS011;4031;49.758;6.120;2023-04-03T17:07:49;4.70;;;1.60;;
7971;SDS011;4031;49.758;6.120;2023-04-03T17:10:15;1.47;;;0.90;;
7971;SDS011;4031;49.758;6.120;2023-04-03T17:12:41;1.20;;;1.10;;
7971;SDS011;4031;49.758;6.120;2023-04-03T17:15:07;1.87;;;1.50;;
7971;SDS011;4031;49.758;6.120;2023-04-03T17:17:33;1.00;;;1.00;;
7971;SDS011;4031;49.758;6.120;2023-04-03T17:19:59;5.93;;;1.67;;
7971;SDS011;4031;49.758;6.120;2023-04-03T17:22:25;1.50;;;1.10;;
7971;SDS011;4031;49.758;6.120;2023-04-03T17:24:52;3.07;;;1.27;;
7971;SDS011;4031;49.758;6.120;2023-04-03T17:27:18;3.50;;;1.13;;
7971;SDS011;4031;49.758;6.120;2023-04-03T17:29:43;1.93;;;1.30;;
7971;SDS011;4031;49.758;6.120;2023-04-03T17:32:09;2.83;;;1.40;;
7971;SDS011;4031;49.758;6.120;2023-04-03T17:34:35;3.00;;;1.30;;
7971;SDS011;4031;49.758;6.120;2023-04-03T17:37:01;2.97;;;1.10;;